Time;durP1;ratioP1;P1;durP2;ratioP2;P2;SDS_P1;SDS_P2;PMS_P1;PMS_P2;Temp;Humidity;BMP_temperature;BMP_pressure;BME280_temperature;BME280_humidity;BME280_pressure;Samples;Min_cycle;Max_cycle;Signal;HPM_P1;HPM_P2
2021/10/20 00:01:48;;;;;;;7.72;6.93;;;10.30;99.90;;;;;;5045571;28;20079;-75
2021/10/20 00:04:15;;;;;;;8.45;7.38;;;10.30;99.90;;;;;;5041052;28;20096;-75
2021/10/20 00:06:41;;;;;;;7.93;6.82;;;10.20;99.90;;;;;;5037262;28;20018;-76
2021/10/20 00:09:07;;;;;;;9.98;7.38;;;10.10;99.90;;;;;;5032083;28;20030;-76
2021/10/20 00:11:33;;;;;;;9.18;7.07;;;10.10;99.90;;;;;;5032101;28;20051;-76
2021/10/20 00:13:58;;;;;;;8.88;7.47;;;10.20;99.90;;;;;;5038804;28;20033;-76
2021/10/20 00:16:24;;;;;;;10.55;7.63;;;10.10;99.90;;;;;;5052017;28;20036;-77
2021/10/20 00:18:50;;;;;;;8.10;7.10;;;10.10;99.90;;;;;;5051835;28;20025;-76
2021/10/20 00:21:24;;;;;;;9.15;7.40;;;10.10;99.90;;;;;;5051901;28;20025;-76
2021/10/20 00:23:49;;;;;;;9.95;7.00;;;10.00;99.90;;;;;;5051848;28;20048;-75
2021/10/20 00:26:15;;;;;;;8.35;7.25;;;10.00;99.90;;;;;;5050379;28;20064;-75
2021/10/20 00:28:41;;;;;;;7.10;6.40;;;10.20;99.90;;;;;;5042913;28;20530;-75
2021/10/20 00:31:06;;;;;;;8.63;6.68;;;10.10;99.90;;;;;;5033541;28;20025;-74
2021/10/20 00:33:32;;;;;;;11.13;6.93;;;10.10;99.90;;;;;;5051422;28;20040;-77
2021/10/20 00:35:57;;;;;;;8.38;6.72;;;10.00;99.90;;;;;;5051710;28;20079;-76
2021/10/20 00:38:23;;;;;;;8.30;6.80;;;10.10;99.90;;;;;;5051556;28;20408;-76
2021/10/20 00:40:52;;;;;;;7.07;6.25;;;10.20;99.90;;;;;;5044933;28;20028;-76
2021/10/20 00:43:22;;;;;;;8.43;5.97;;;10.20;99.90;;;;;;5039967;28;20499;-76
2021/10/20 00:45:48;;;;;;;14.43;6.70;;;10.30;99.90;;;;;;5039881;28;20539;-76
2021/10/20 00:48:14;;;;;;;6.70;5.75;;;10.20;99.90;;;;;;5047124;28;20048;-76
2021/10/20 00:50:40;;;;;;;7.15;5.72;;;10.20;99.90;;;;;;5048769;28;20056;-76
2021/10/20 00:53:06;;;;;;;7.15;6.05;;;10.20;99.90;;;;;;5031597;28;20080;-76
2021/10/20 00:55:32;;;;;;;6.15;5.50;;;10.20;99.90;;;;;;5031519;28;20048;-76
2021/10/20 00:57:58;;;;;;;8.23;5.75;;;10.20;99.90;;;;;;5030232;28;20030;-76
2021/10/20 01:00:23;;;;;;;7.18;5.85;;;10.20;99.90;;;;;;5027718;28;20053;-75
2021/10/20 01:02:49;;;;;;;6.10;5.50;;;10.10;99.90;;;;;;5028143;28;20109;-77
2021/10/20 01:05:15;;;;;;;6.97;5.25;;;10.30;99.90;;;;;;5042108;28;20424;-76
2021/10/20 01:07:41;;;;;;;6.53;5.15;;;10.40;99.90;;;;;;5054111;28;20525;-76
2021/10/20 01:10:09;;;;;;;7.35;5.55;;;10.50;99.90;;;;;;5055353;28;20029;-76
2021/10/20 01:12:36;;;;;;;6.25;5.65;;;10.40;99.90;;;;;;5051499;28;20124;-76
2021/10/20 01:15:24;;;;;;;7.90;5.65;;;10.30;99.90;;;;;;5050849;28;20112;-76
2021/10/20 01:17:50;;;;;;;6.32;5.10;;;10.30;99.90;;;;;;5015460;28;20095;-76
2021/10/20 01:20:17;;;;;;;7.63;5.45;;;10.50;99.90;;;;;;5043735;28;20038;-76
2021/10/20 01:22:43;;;;;;;6.13;5.05;;;10.50;99.90;;;;;;5055085;28;20025;-76
2021/10/20 01:25:10;;;;;;;5.65;5.05;;;10.60;99.90;;;;;;5054919;28;20681;-76
2021/10/20 01:27:35;;;;;;;6.05;5.22;;;10.50;99.90;;;;;;5033621;28;20025;-76
2021/10/20 01:30:03;;;;;;;5.35;4.85;;;10.50;99.90;;;;;;5034734;28;20383;-76
2021/10/20 01:32:28;;;;;;;5.32;4.63;;;10.50;99.90;;;;;;5037347;28;20036;-76
2021/10/20 01:34:54;;;;;;;5.47;4.75;;;10.30;99.90;;;;;;5049925;28;20021;-75
2021/10/20 01:37:22;;;;;;;6.68;5.57;;;10.40;99.90;;;;;;5036625;28;20024;-75
2021/10/20 01:39:48;;;;;;;6.50;5.03;;;10.30;99.90;;;;;;5021917;28;20021;-76
2021/10/20 01:42:14;;;;;;;7.60;4.97;;;10.30;99.90;;;;;;5034522;28;20032;-75
2021/10/20 01:44:39;;;;;;;6.60;5.30;;;10.10;99.90;;;;;;5034576;28;20025;-76
2021/10/20 01:47:05;;;;;;;7.78;5.00;;;10.00;99.90;;;;;;5034736;28;20036;-75
2021/10/20 01:49:31;;;;;;;6.93;5.00;;;10.00;99.90;;;;;;5028002;28;20084;-77
2021/10/20 01:51:56;;;;;;;6.10;4.85;;;10.00;99.90;;;;;;5026370;28;20025;-75
2021/10/20 01:54:22;;;;;;;5.63;4.93;;;10.10;99.90;;;;;;5034335;28;20033;-76
2021/10/20 01:56:48;;;;;;;6.85;4.85;;;10.20;99.90;;;;;;5021485;28;20479;-76
2021/10/20 01:59:14;;;;;;;5.43;4.93;;;10.30;99.90;;;;;;5034228;28;20025;-76
2021/10/20 02:01:40;;;;;;;9.02;4.93;;;10.40;99.90;;;;;;5021215;28;20547;-76
2021/10/20 02:04:13;;;;;;;6.90;5.00;;;10.50;99.90;;;;;;5026575;28;20124;-77
2021/10/20 02:06:41;;;;;;;5.78;4.80;;;10.40;99.90;;;;;;5027664;28;20418;-77
2021/10/20 02:09:07;;;;;;;6.40;5.53;;;10.40;99.90;;;;;;5021947;28;20109;-77
2021/10/20 02:11:36;;;;;;;6.82;5.30;;;10.40;99.90;;;;;;5019797;28;20108;-77
2021/10/20 02:14:06;;;;;;;5.60;4.78;;;10.50;99.90;;;;;;5021564;28;20037;-76
2021/10/20 02:16:31;;;;;;;5.85;5.20;;;10.40;99.90;;;;;;5020656;28;20030;-76
2021/10/20 02:18:57;;;;;;;6.50;4.70;;;10.50;99.90;;;;;;5025400;28;20034;-76
2021/10/20 02:21:23;;;;;;;7.78;5.00;;;10.50;99.90;;;;;;5029313;28;20155;-77
2021/10/20 02:23:49;;;;;;;6.05;5.38;;;10.50;99.90;;;;;;5033990;28;20022;-75
2021/10/20 02:26:14;;;;;;;5.30;4.80;;;10.50;99.90;;;;;;5020655;28;20034;-75
2021/10/20 02:28:40;;;;;;;9.80;5.10;;;10.40;99.90;;;;;;5032512;28;20033;-75
2021/10/20 02:31:05;;;;;;;6.50;5.38;;;10.40;99.90;;;;;;5033606;28;20034;-75
2021/10/20 02:33:31;;;;;;;5.13;4.63;;;10.40;99.90;;;;;;5033741;28;20022;-75
2021/10/20 02:35:56;;;;;;;5.68;5.18;;;10.50;99.90;;;;;;5020409;28;20080;-75
2021/10/20 02:38:22;;;;;;;6.53;5.20;;;10.50;99.90;;;;;;5025575;28;20065;-75
2021/10/20 02:40:48;;;;;;;5.68;5.00;;;10.40;99.90;;;;;;5026909;28;20061;-75
2021/10/20 02:43:13;;;;;;;6.93;5.15;;;10.40;99.90;;;;;;5021433;28;20034;-76
2021/10/20 02:45:39;;;;;;;6.30;4.75;;;10.40;99.90;;;;;;5032236;28;20071;-75
2021/10/20 02:48:05;;;;;;;5.72;5.13;;;10.40;99.90;;;;;;5033449;28;20409;-75
2021/10/20 02:50:30;;;;;;;6.72;5.00;;;10.30;99.90;;;;;;5031870;28;20033;-75
2021/10/20 02:52:57;;;;;;;5.75;4.82;;;10.20;99.90;;;;;;5013665;28;20109;-76
2021/10/20 02:55:23;;;;;;;6.65;5.20;;;10.20;99.90;;;;;;5026832;28;20036;-75
2021/10/20 02:57:49;;;;;;;6.22;4.95;;;10.30;99.90;;;;;;5013516;28;20396;-76
2021/10/20 03:00:15;;;;;;;5.82;5.22;;;10.30;99.90;;;;;;5026686;28;20017;-76
2021/10/20 03:02:40;;;;;;;5.75;4.60;;;10.30;99.90;;;;;;5020795;28;20018;-75
2021/10/20 03:05:06;;;;;;;5.10;4.50;;;10.30;99.90;;;;;;5020017;28;20029;-77
2021/10/20 03:07:32;;;;;;;6.60;5.05;;;10.20;99.90;;;;;;5025745;28;20025;-76
2021/10/20 03:09:58;;;;;;;5.72;5.10;;;10.20;99.90;;;;;;5025408;28;20159;-77
2021/10/20 03:12:24;;;;;;;6.35;5.32;;;10.30;99.90;;;;;;5020311;28;20101;-77
2021/10/20 03:14:49;;;;;;;6.82;4.60;;;10.20;99.90;;;;;;5031676;28;20475;-77
2021/10/20 03:17:16;;;;;;;5.35;4.45;;;10.20;99.90;;;;;;5025973;28;20030;-78
2021/10/20 03:19:43;;;;;;;6.00;4.32;;;10.20;99.90;;;;;;5026718;28;20076;-77
2021/10/20 03:22:08;;;;;;;4.43;4.03;;;10.20;99.90;;;;;;5025818;28;20029;-77
2021/10/20 03:24:34;;;;;;;4.40;3.90;;;10.40;99.90;;;;;;5020951;28;20021;-76
2021/10/20 03:27:00;;;;;;;5.30;4.30;;;10.40;99.90;;;;;;5032571;28;20435;-74
2021/10/20 03:29:26;;;;;;;5.82;4.25;;;10.40;99.90;;;;;;5019546;28;20028;-75
2021/10/20 03:31:51;;;;;;;5.05;3.75;;;10.40;99.90;;;;;;5019339;28;20495;-74
2021/10/20 03:34:17;;;;;;;5.00;3.63;;;10.40;99.90;;;;;;5019460;28;20392;-74
2021/10/20 03:36:42;;;;;;;4.20;3.80;;;10.50;99.90;;;;;;5025994;28;20117;-74
2021/10/20 03:39:08;;;;;;;6.82;4.00;;;10.50;99.90;;;;;;5012684;28;20033;-74
2021/10/20 03:41:33;;;;;;;5.20;3.60;;;10.30;99.90;;;;;;5025859;28;20041;-75
2021/10/20 03:43:59;;;;;;;6.03;3.90;;;10.40;99.90;;;;;;5025712;28;20021;-75
2021/10/20 03:46:24;;;;;;;6.85;4.30;;;10.40;99.90;;;;;;5031170;28;20460;-75
2021/10/20 03:48:50;;;;;;;5.75;4.20;;;10.40;99.90;;;;;;5031235;28;20531;-75
2021/10/20 03:51:15;;;;;;;6.28;4.28;;;10.30;99.90;;;;;;5018896;28;20029;-74
2021/10/20 03:53:41;;;;;;;5.00;4.15;;;10.20;99.90;;;;;;5020005;28;20030;-75
2021/10/20 03:56:06;;;;;;;5.57;4.72;;;10.20;99.90;;;;;;5024605;28;20057;-75
2021/10/20 03:58:32;;;;;;;8.18;5.20;;;10.20;99.90;;;;;;5026679;28;20072;-75
2021/10/20 04:00:58;;;;;;;8.32;4.50;;;10.10;99.90;;;;;;5023429;28;20476;-76
2021/10/20 04:03:23;;;;;;;4.57;3.92;;;10.10;99.90;;;;;;5025696;28;20441;-76
2021/10/20 04:05:49;;;;;;;6.70;4.95;;;10.10;99.90;;;;;;5019687;28;20041;-75
2021/10/20 04:08:14;;;;;;;6.78;4.38;;;10.10;99.90;;;;;;5018828;28;20032;-75
2021/10/20 04:10:40;;;;;;;6.65;4.28;;;10.10;99.90;;;;;;5024420;28;20060;-75
2021/10/20 04:13:05;;;;;;;6.45;3.97;;;10.10;99.90;;;;;;5025304;28;20044;-75
2021/10/20 04:15:31;;;;;;;5.05;4.55;;;10.00;99.90;;;;;;5019647;28;20026;-76
2021/10/20 04:17:56;;;;;;;5.93;4.53;;;10.00;99.90;;;;;;5018512;28;20033;-75
2021/10/20 04:20:24;;;;;;;4.63;3.90;;;10.00;99.90;;;;;;5024744;28;20021;-74
2021/10/20 04:22:51;;;;;;;5.80;4.38;;;10.00;99.90;;;;;;5025148;28;20017;-75
2021/10/20 04:25:18;;;;;;;4.53;4.07;;;10.00;99.90;;;;;;5019472;28;20594;-75
2021/10/20 04:27:45;;;;;;;5.85;4.32;;;10.00;99.90;;;;;;5018431;28;20037;-74
2021/10/20 04:30:13;;;;;;;6.25;4.63;;;9.90;99.90;;;;;;5024058;28;20025;-75
2021/10/20 04:32:39;;;;;;;11.57;9.40;;;10.00;99.90;;;;;;5024952;28;20021;-75
2021/10/20 04:35:05;;;;;;;7.95;6.38;;;10.00;99.90;;;;;;5020050;28;20112;-75
2021/10/20 04:37:31;;;;;;;13.00;9.32;;;10.00;99.90;;;;;;5018476;28;20018;-74
2021/10/20 04:39:58;;;;;;;9.90;8.07;;;10.00;99.90;;;;;;5024211;28;20026;-75
2021/10/20 04:42:28;;;;;;;11.38;8.65;;;10.00;99.90;;;;;;5034080;28;20026;-76
2021/10/20 04:44:54;;;;;;;42.55;26.55;;;10.00;99.90;;;;;;5029109;28;20025;-76
2021/10/20 04:47:20;;;;;;;92.10;51.00;;;10.00;99.90;;;;;;5035909;28;20026;-76
2021/10/20 04:49:46;;;;;;;308.63;188.23;;;10.00;99.90;;;;;;5035673;28;20083;-75
2021/10/20 04:52:12;;;;;;;17.80;12.50;;;9.70;99.90;;;;;;5035751;28;20030;-75
2021/10/20 04:54:37;;;;;;;8.88;5.80;;;9.90;99.90;;;;;;5035536;28;20052;-75
2021/10/20 04:57:03;;;;;;;8.63;7.28;;;10.00;99.90;;;;;;5035612;28;20026;-76
2021/10/20 04:59:31;;;;;;;7.95;6.10;;;10.00;99.90;;;;;;5035417;28;20040;-76
2021/10/20 05:02:02;;;;;;;6.68;5.13;;;10.00;99.90;;;;;;5035495;28;20021;-76
2021/10/20 05:04:27;;;;;;;6.30;5.70;;;10.00;99.90;;;;;;5035476;28;20022;-75
2021/10/20 05:06:53;;;;;;;8.60;5.95;;;9.90;99.90;;;;;;5035399;28;20032;-76
2021/10/20 05:09:19;;;;;;;7.13;5.30;;;10.00;99.90;;;;;;5026540;28;20069;-76
2021/10/20 05:11:44;;;;;;;6.80;5.57;;;9.90;99.90;;;;;;5015578;28;20034;-76
2021/10/20 05:14:10;;;;;;;6.00;4.93;;;9.90;99.90;;;;;;5015505;28;20025;-75
2021/10/20 05:16:35;;;;;;;5.63;5.03;;;9.80;99.90;;;;;;5015492;28;20514;-75
2021/10/20 05:19:01;;;;;;;5.93;5.20;;;9.80;99.90;;;;;;5014020;28;20458;-75
2021/10/20 05:21:27;;;;;;;5.80;4.75;;;9.80;99.90;;;;;;5015409;28;20528;-75
2021/10/20 05:23:52;;;;;;;6.03;5.13;;;9.70;99.90;;;;;;5015328;28;20049;-75
2021/10/20 05:26:19;;;;;;;7.50;5.05;;;9.80;99.90;;;;;;5014016;28;20022;-75
2021/10/20 05:28:44;;;;;;;6.95;5.63;;;9.80;99.90;;;;;;5014005;28;20392;-76
2021/10/20 05:31:10;;;;;;;5.38;4.88;;;9.70;99.90;;;;;;5015221;28;20030;-75
2021/10/20 05:33:36;;;;;;;6.20;4.80;;;9.60;99.90;;;;;;5015207;28;20029;-76
2021/10/20 05:36:03;;;;;;;6.28;4.97;;;9.60;99.90;;;;;;5015161;28;20029;-76
2021/10/20 05:38:28;;;;;;;7.35;5.55;;;9.50;99.90;;;;;;5014907;28;20121;-76
2021/10/20 05:40:54;;;;;;;6.15;5.03;;;9.50;99.90;;;;;;5015026;28;20101;-75
2021/10/20 05:43:19;;;;;;;5.97;5.28;;;9.50;99.90;;;;;;5015074;28;20646;-76
2021/10/20 05:45:46;;;;;;;6.15;4.50;;;9.60;99.90;;;;;;5013755;28;20026;-76
2021/10/20 05:48:12;;;;;;;5.30;4.80;;;9.70;99.90;;;;;;5015050;28;20022;-76
2021/10/20 05:50:38;;;;;;;8.02;5.50;;;9.60;99.90;;;;;;5028183;28;20040;-75
2021/10/20 05:53:03;;;;;;;5.05;4.55;;;9.60;99.90;;;;;;5032833;28;20029;-76
2021/10/20 05:55:29;;;;;;;5.18;4.68;;;9.70;99.90;;;;;;5032280;28;20534;-75
2021/10/20 05:57:54;;;;;;;5.75;4.68;;;9.70;99.90;;;;;;5014822;28;20034;-76
2021/10/20 06:00:20;;;;;;;6.63;4.90;;;9.70;99.90;;;;;;5013454;28;20022;-76
2021/10/20 06:02:45;;;;;;;5.72;5.13;;;9.80;99.90;;;;;;5014667;28;20068;-75
2021/10/20 06:05:11;;;;;;;5.72;4.75;;;9.70;99.90;;;;;;5014765;28;20018;-75
2021/10/20 06:07:41;;;;;;;6.93;4.72;;;9.70;99.90;;;;;;5014491;28;20018;-75
2021/10/20 06:10:07;;;;;;;6.85;4.80;;;9.70;99.90;;;;;;5014279;28;20034;-76
2021/10/20 06:12:33;;;;;;;4.90;4.40;;;9.80;99.90;;;;;;5023208;28;20100;-76
2021/10/20 06:14:58;;;;;;;5.60;4.90;;;9.70;99.90;;;;;;5034199;28;20144;-76
2021/10/20 06:17:24;;;;;;;5.63;4.68;;;9.70;99.90;;;;;;5025443;28;20026;-76
2021/10/20 06:19:49;;;;;;;5.53;4.93;;;9.70;99.90;;;;;;5027666;28;20479;-75
2021/10/20 06:22:16;;;;;;;5.68;4.95;;;9.70;99.90;;;;;;5022499;28;20021;-75
2021/10/20 06:24:42;;;;;;;6.57;5.03;;;9.70;99.90;;;;;;5033196;28;20108;-75
2021/10/20 06:27:07;;;;;;;6.00;5.00;;;9.80;99.90;;;;;;5026115;28;20105;-76
2021/10/20 06:29:33;;;;;;;6.55;4.97;;;9.90;99.90;;;;;;5014060;28;20237;-75
2021/10/20 06:31:59;;;;;;;9.93;5.47;;;10.00;99.90;;;;;;5016066;28;20046;-75
2021/10/20 06:34:24;;;;;;;6.88;5.30;;;10.00;99.90;;;;;;5015676;28;20386;-76
2021/10/20 06:36:50;;;;;;;5.50;5.00;;;10.10;99.90;;;;;;5025705;28;20036;-75
2021/10/20 06:39:20;;;;;;;5.15;4.65;;;10.20;99.90;;;;;;5015521;28;20026;-76
2021/10/20 06:41:47;;;;;;;6.20;4.72;;;10.20;99.90;;;;;;5024277;28;20105;-76
2021/10/20 06:44:12;;;;;;;6.10;5.00;;;10.20;99.90;;;;;;5022537;28;20020;-73
2021/10/20 06:46:38;;;;;;;5.50;4.75;;;10.20;99.90;;;;;;5032329;28;20029;-75
2021/10/20 06:49:03;;;;;;;7.85;4.53;;;10.30;99.90;;;;;;5033581;28;20476;-76
2021/10/20 06:51:29;;;;;;;6.68;5.40;;;10.30;99.90;;;;;;5032028;28;20033;-75
2021/10/20 06:53:55;;;;;;;5.88;5.00;;;10.50;99.90;;;;;;5033427;28;20029;-76
2021/10/20 06:56:21;;;;;;;5.30;4.57;;;10.50;99.90;;;;;;5033271;28;20037;-76
2021/10/20 06:58:46;;;;;;;5.45;4.45;;;10.50;99.90;;;;;;5030561;28;20506;-75
2021/10/20 07:01:12;;;;;;;5.15;4.60;;;10.60;99.90;;;;;;5020774;28;20067;-76
2021/10/20 07:03:37;;;;;;;6.60;4.50;;;10.50;99.90;;;;;;5033228;28;21595;-76
2021/10/20 07:06:03;;;;;;;6.10;4.88;;;10.70;99.90;;;;;;5024118;28;20026;-75
2021/10/20 07:08:28;;;;;;;7.00;4.90;;;10.70;99.90;;;;;;5029420;28;20112;-76
2021/10/20 07:10:54;;;;;;;6.32;4.75;;;10.80;99.90;;;;;;5022342;28;20040;-75
2021/10/20 07:13:19;;;;;;;6.88;4.95;;;10.80;99.90;;;;;;5012176;28;20439;-76
2021/10/20 07:15:47;;;;;;;5.47;4.25;;;11.10;99.90;;;;;;5022444;28;20594;-76
2021/10/20 07:18:13;;;;;;;5.88;4.53;;;11.20;99.90;;;;;;5029952;28;20022;-76
2021/10/20 07:20:39;;;;;;;6.57;4.53;;;11.20;99.90;;;;;;5021586;28;20025;-76
2021/10/20 07:23:05;;;;;;;6.32;4.95;;;11.30;99.90;;;;;;5018471;28;20387;-75
2021/10/20 07:25:30;;;;;;;7.00;5.20;;;11.30;99.90;;;;;;5023244;28;20384;-76
2021/10/20 07:27:56;;;;;;;8.00;4.85;;;11.30;99.90;;;;;;5026202;28;20053;-76
2021/10/20 07:30:21;;;;;;;6.53;5.18;;;11.30;99.90;;;;;;5022481;28;20080;-75
2021/10/20 07:32:47;;;;;;;5.05;4.50;;;11.40;99.90;;;;;;5019423;28;20104;-76
2021/10/20 07:35:14;;;;;;;6.35;4.60;;;11.60;99.90;;;;;;5023459;28;20488;-76
2021/10/20 07:37:41;;;;;;;6.38;4.57;;;11.60;99.90;;;;;;5025925;28;20026;-75
2021/10/20 07:40:08;;;;;;;6.97;4.53;;;11.50;99.90;;;;;;5028122;28;20119;-76
2021/10/20 07:42:36;;;;;;;6.32;4.68;;;11.60;99.90;;;;;;5016044;28;20028;-75
2021/10/20 07:45:04;;;;;;;5.72;4.80;;;11.80;99.90;;;;;;5032583;28;20071;-75
2021/10/20 07:47:30;;;;;;;6.47;4.35;;;12.00;99.90;;;;;;5031415;28;20022;-75
2021/10/20 07:49:56;;;;;;;6.05;4.63;;;12.10;99.90;;;;;;5031241;28;20028;-75
2021/10/20 07:52:25;;;;;;;5.10;4.28;;;12.10;99.90;;;;;;5032144;28;20037;-76
2021/10/20 07:54:52;;;;;;;6.00;4.75;;;12.20;99.90;;;;;;5021952;28;20488;-75
2021/10/20 07:57:17;;;;;;;5.40;4.53;;;12.20;99.90;;;;;;5025798;28;20026;-75
2021/10/20 07:59:43;;;;;;;6.00;4.30;;;12.20;99.90;;;;;;5022615;28;20201;-76
2021/10/20 08:02:09;;;;;;;4.78;4.32;;;12.20;99.90;;;;;;5032143;28;20394;-76
2021/10/20 08:04:34;;;;;;;6.22;4.60;;;12.40;99.90;;;;;;5022207;28;20379;-76
2021/10/20 08:07:00;;;;;;;5.18;4.50;;;12.30;99.90;;;;;;5028911;28;20024;-76
2021/10/20 08:09:25;;;;;;;8.35;4.18;;;12.40;99.90;;;;;;5022207;28;20484;-75
2021/10/20 08:11:51;;;;;;;8.15;4.78;;;12.40;99.90;;;;;;5027963;28;20029;-75
2021/10/20 08:14:16;;;;;;;8.13;4.95;;;12.60;99.90;;;;;;5022020;28;20543;-76
2021/10/20 08:16:42;;;;;;;6.50;4.47;;;12.70;99.90;;;;;;5025526;28;20052;-76
2021/10/20 08:19:07;;;;;;;6.05;4.40;;;12.70;99.90;;;;;;5012194;28;20033;-76
2021/10/20 08:21:33;;;;;;;4.75;4.30;;;12.70;99.90;;;;;;5025325;28;20061;-76
2021/10/20 08:23:59;;;;;;;4.93;4.28;;;12.60;99.90;;;;;;5021813;28;20029;-75
2021/10/20 08:26:24;;;;;;;5.95;4.35;;;12.60;99.90;;;;;;5015697;28;20480;-75
2021/10/20 08:28:50;;;;;;;5.70;4.28;;;12.60;99.90;;;;;;5021842;28;20033;-75
2021/10/20 08:31:16;;;;;;;5.45;4.18;;;12.60;99.90;;;;;;5018291;28;20033;-76
2021/10/20 08:33:42;;;;;;;6.82;4.93;;;12.50;99.90;;;;;;5031886;28;20025;-76
2021/10/20 08:36:08;;;;;;;6.95;4.47;;;12.50;99.90;;;;;;5028955;28;20133;-76
2021/10/20 08:38:33;;;;;;;5.80;4.53;;;12.60;99.90;;;;;;5021475;28;20112;-76
2021/10/20 08:41:00;;;;;;;4.38;3.97;;;12.70;99.90;;;;;;5018470;28;20107;-77
2021/10/20 08:43:26;;;;;;;6.03;4.13;;;13.00;99.90;;;;;;5024457;28;20026;-76
2021/10/20 08:45:52;;;;;;;6.30;4.03;;;13.30;99.90;;;;;;5031739;28;20025;-76
2021/10/20 08:48:19;;;;;;;5.70;4.13;;;13.40;99.90;;;;;;5030550;28;20033;-76
2021/10/20 08:50:49;;;;;;;6.05;4.20;;;13.50;99.90;;;;;;5028379;28;20050;-76
2021/10/20 08:53:16;;;;;;;8.02;4.70;;;13.60;99.90;;;;;;5020667;28;20029;-76
2021/10/20 08:55:41;;;;;;;6.70;4.20;;;13.70;99.90;;;;;;5013611;28;20684;-76
2021/10/20 08:58:07;;;;;;;6.57;4.88;;;13.60;99.90;;;;;;5021725;28;20072;-76
2021/10/20 09:00:32;;;;;;;4.85;3.80;;;13.70;99.90;;;;;;5018010;28;20021;-77
2021/10/20 09:02:58;;;;;;;8.98;4.25;;;13.80;99.90;;;;;;5031525;28;20021;-76
2021/10/20 09:05:26;;;;;;;6.03;4.55;;;13.90;99.90;;;;;;5028404;28;20108;-76
2021/10/20 09:07:56;;;;;;;6.03;4.10;;;13.90;99.90;;;;;;5011757;28;20480;-76
2021/10/20 09:10:28;;;;;;;4.22;3.75;;;14.10;99.90;;;;;;5023639;28;20544;-76
2021/10/20 09:12:56;;;;;;;4.70;3.78;;;14.40;99.90;;;;;;5022863;28;20511;-76
2021/10/20 09:15:25;;;;;;;5.40;3.83;;;14.40;99.90;;;;;;5017471;28;20053;-76
2021/10/20 09:17:59;;;;;;;5.10;4.00;;;14.40;99.90;;;;;;5019011;28;20117;-76
2021/10/20 09:20:26;;;;;;;4.90;4.07;;;14.30;99.90;;;;;;5031191;28;20021;-77
2021/10/20 09:23:13;;;;;;;5.68;4.57;;;14.50;99.90;;;;;;5017947;28;20025;-77
2021/10/20 09:25:41;;;;;;;6.55;4.15;;;14.60;99.90;;;;;;5024554;28;20076;-76
2021/10/20 09:28:19;;;;;;;5.20;4.20;;;14.60;99.90;;;;;;5033684;28;20080;-77
2021/10/20 09:30:44;;;;;;;6.63;3.83;;;14.60;99.90;;;;;;5034953;28;20021;-77
2021/10/20 09:33:10;;;;;;;8.85;4.07;;;14.60;99.90;;;;;;5033694;28;20031;-77
2021/10/20 09:35:37;;;;;;;5.82;4.15;;;14.60;99.90;;;;;;5033627;28;20029;-77
2021/10/20 09:38:04;;;;;;;5.35;4.18;;;14.50;99.90;;;;;;5034813;28;20052;-76
2021/10/20 09:40:42;;;;;;;4.88;4.03;;;14.50;99.90;;;;;;5034745;28;20492;-76
2021/10/20 09:43:09;;;;;;;5.78;4.18;;;14.60;99.90;;;;;;5033568;28;20040;-76
2021/10/20 09:45:38;;;;;;;7.50;4.57;;;14.70;99.90;;;;;;5030296;28;20026;-75
2021/10/20 09:48:17;;;;;;;6.38;4.10;;;14.80;99.90;;;;;;5013500;28;20461;-76
2021/10/20 09:51:12;;;;;;;7.10;5.07;;;14.70;99.90;;;;;;5013577;28;20026;-76
2021/10/20 09:53:40;;;;;;;7.40;5.15;;;14.70;99.90;;;;;;5014942;28;20705;-76
2021/10/20 09:56:19;;;;;;;7.00;4.80;;;14.70;99.90;;;;;;5021293;28;20045;-76
2021/10/20 09:58:46;;;;;;;8.18;4.72;;;14.80;99.90;;;;;;5034349;28;20032;-77
2021/10/20 10:01:20;;;;;;;6.55;4.85;;;14.70;99.90;;;;;;5024994;28;20018;-76
2021/10/20 10:03:46;;;;;;;6.25;4.40;;;14.80;99.90;;;;;;5027945;28;20036;-76
2021/10/20 10:06:11;;;;;;;8.18;4.80;;;15.00;99.90;;;;;;5025417;28;20061;-76
2021/10/20 10:08:37;;;;;;;10.90;6.10;;;15.00;99.90;;;;;;5020899;28;20083;-76
2021/10/20 10:11:02;;;;;;;9.45;6.53;;;14.90;99.90;;;;;;5023149;28;20030;-74
2021/10/20 10:13:35;;;;;;;10.75;7.40;;;14.90;99.90;;;;;;5030721;28;20065;-74
2021/10/20 10:16:03;;;;;;;8.85;6.05;;;15.10;99.90;;;;;;5039448;28;20511;-75
2021/10/20 10:18:29;;;;;;;15.20;7.00;;;15.30;99.90;;;;;;5038826;28;20581;-76
2021/10/20 10:20:55;;;;;;;8.05;6.30;;;15.20;99.90;;;;;;5040809;28;20495;-76
2021/10/20 10:23:27;;;;;;;6.95;5.90;;;15.10;99.90;;;;;;5043931;28;20109;-76
2021/10/20 10:25:57;;;;;;;10.63;7.18;;;15.20;99.90;;;;;;5044289;28;20024;-75
2021/10/20 10:28:26;;;;;;;10.68;5.90;;;15.40;99.90;;;;;;5043967;28;20030;-76
2021/10/20 10:31:05;;;;;;;6.45;4.75;;;15.60;99.90;;;;;;5046268;28;20065;-75
2021/10/20 10:33:33;;;;;;;8.90;5.10;;;15.80;99.90;;;;;;5031666;28;20489;-73
2021/10/20 10:36:13;;;;;;;5.90;4.63;;;16.00;99.90;;;;;;5045687;28;20106;-76
2021/10/20 10:38:47;;;;;;;9.07;4.57;;;15.90;99.90;;;;;;5028812;28;20116;-76
2021/10/20 10:41:27;;;;;;;6.50;4.28;;;16.00;99.90;;;;;;5043785;28;20026;-76
2021/10/20 10:44:02;;;;;;;5.88;4.10;;;16.20;99.90;;;;;;5038738;28;20025;-76
2021/10/20 10:46:31;;;;;;;6.75;3.80;;;16.40;99.90;;;;;;5044496;28;20021;-76
2021/10/20 10:48:57;;;;;;;6.03;4.50;;;16.60;99.90;;;;;;5046245;28;20083;-75
2021/10/20 10:51:23;;;;;;;6.70;4.55;;;16.50;99.90;;;;;;5043561;28;20022;-76
2021/10/20 10:53:54;;;;;;;5.65;4.13;;;16.30;99.90;;;;;;5043044;28;20029;-76
2021/10/20 10:56:19;;;;;;;6.15;4.32;;;16.20;99.90;;;;;;5043120;28;20035;-76
2021/10/20 10:59:04;;;;;;;7.10;3.88;;;16.30;99.90;;;;;;5042730;28;20033;-75
2021/10/20 11:01:40;;;;;;;6.68;4.65;;;16.50;99.90;;;;;;5048894;28;20018;-76
2021/10/20 11:04:27;;;;;;;6.63;4.18;;;16.50;99.90;;;;;;5039929;28;20021;-74
2021/10/20 11:06:54;;;;;;;6.68;4.80;;;16.50;99.90;;;;;;5037241;28;20028;-75
2021/10/20 11:09:32;;;;;;;6.63;4.10;;;16.50;99.90;;;;;;5034295;28;20075;-75
2021/10/20 11:11:58;;;;;;;6.05;4.40;;;16.60;99.90;;;;;;5043693;28;20388;-76
2021/10/20 11:14:26;;;;;;;6.38;4.65;;;16.70;99.90;;;;;;5049440;28;20702;-75
2021/10/20 11:17:06;;;;;;;5.78;3.97;;;16.80;99.90;;;;;;5039746;28;20037;-76
2021/10/20 11:19:32;;;;;;;9.02;4.32;;;16.90;99.90;;;;;;5048434;28;20022;-75
2021/10/20 11:21:59;;;;;;;8.32;4.30;;;17.10;99.90;;;;;;5041096;28;20104;-76
2021/10/20 11:24:25;;;;;;;7.85;4.97;;;16.90;99.90;;;;;;5047311;28;20479;-76
2021/10/20 11:26:54;;;;;;;7.28;4.60;;;16.80;99.90;;;;;;5040926;28;20032;-76
2021/10/20 11:29:20;;;;;;;8.18;4.00;;;17.00;99.90;;;;;;5045917;28;20500;-76
2021/10/20 11:31:56;;;;;;;8.18;4.88;;;17.40;99.90;;;;;;5044982;28;20487;-73
2021/10/20 11:34:27;;;;;;;5.82;3.88;;;17.40;99.90;;;;;;5033649;28;20022;-75
2021/10/20 11:36:54;;;;;;;5.38;4.05;;;17.30;99.90;;;;;;5030879;28;20033;-76
2021/10/20 11:39:19;;;;;;;6.10;4.38;;;17.40;99.90;;;;;;5032283;28;20056;-76
2021/10/20 11:41:50;;;;;;;13.18;6.70;;;17.50;99.90;;;;;;5032339;28;20029;-75
2021/10/20 11:44:25;;;;;;;9.45;5.63;;;17.40;99.90;;;;;;5026279;28;20021;-73
2021/10/20 11:46:53;;;;;;;4.53;3.60;;;17.40;99.90;;;;;;5030708;28;20496;-76
2021/10/20 11:49:18;;;;;;;4.65;3.63;;;17.50;99.90;;;;;;5030659;28;20034;-74
2021/10/20 11:51:44;;;;;;;7.82;3.90;;;17.40;99.90;;;;;;5032148;28;20369;-74
2021/10/20 11:54:10;;;;;;;8.55;5.05;;;17.40;99.90;;;;;;5019043;28;20029;-76
2021/10/20 11:56:35;;;;;;;6.88;4.40;;;17.30;99.90;;;;;;5020989;28;20038;-75
2021/10/20 11:59:01;;;;;;;29.13;8.98;;;17.30;99.90;;;;;;5030685;28;20026;-76
2021/10/20 12:01:28;;;;;;;16.50;7.55;;;17.40;99.90;;;;;;5030249;28;20547;-75
2021/10/20 12:03:54;;;;;;;5.45;4.07;;;17.40;99.90;;;;;;5027261;28;20145;-77
2021/10/20 12:06:20;;;;;;;4.40;3.92;;;17.50;99.90;;;;;;5028511;28;20052;-75
2021/10/20 12:08:48;;;;;;;5.10;3.90;;;17.50;99.90;;;;;;5031869;28;20448;-76
2021/10/20 12:11:21;;;;;;;6.20;3.83;;;17.30;99.90;;;;;;5031188;28;20499;-76
2021/10/20 12:13:48;;;;;;;6.90;3.85;;;17.30;99.90;;;;;;5029050;28;20029;-75
2021/10/20 12:16:19;;;;;;;6.13;4.00;;;17.40;99.90;;;;;;5031818;28;20026;-75
2021/10/20 12:18:45;;;;;;;4.70;3.33;;;17.40;99.90;;;;;;5030734;28;20021;-75
2021/10/20 12:21:14;;;;;;;6.25;4.57;;;17.40;99.90;;;;;;5031727;28;20018;-76
2021/10/20 12:23:42;;;;;;;6.03;3.85;;;17.80;99.90;;;;;;5018066;28;20075;-76
2021/10/20 12:26:08;;;;;;;4.20;3.60;;;17.80;99.90;;;;;;5018714;28;20029;-76
2021/10/20 12:28:34;;;;;;;4.43;3.88;;;17.80;99.90;;;;;;5022441;28;20022;-76
2021/10/20 12:31:14;;;;;;;4.60;3.80;;;17.70;99.90;;;;;;5010851;28;20446;-76
2021/10/20 12:33:45;;;;;;;4.95;3.45;;;17.60;99.90;;;;;;5032682;28;20021;-72
2021/10/20 12:36:13;;;;;;;9.20;4.45;;;17.50;99.90;;;;;;5029179;28;20365;-74
2021/10/20 12:38:39;;;;;;;6.10;4.00;;;17.40;99.90;;;;;;5022399;28;20022;-74
2021/10/20 12:41:10;;;;;;;4.88;3.80;;;17.40;99.90;;;;;;5013564;28;20058;-74
2021/10/20 12:43:37;;;;;;;5.45;3.33;;;17.40;99.90;;;;;;5021849;28;20021;-75
2021/10/20 12:46:03;;;;;;;6.63;3.90;;;17.30;99.90;;;;;;5031596;28;20021;-76
2021/10/20 12:48:31;;;;;;;6.13;3.95;;;17.30;99.90;;;;;;5031561;28;20044;-76